Arbovale, WV (24915)

12:12 PM EDT on March 30, 2017 (GMT -0400)
Green Bank Observatory, near 140ft telescope | | Change Station

Elev 2688 ft 38.44 °N, 79.83 °W | Updated 2 minutes ago

Overcast
Overcast
48.0 °F
Feels Like 44 °F
N
8.3
Wind Variable Wind from SW
Gusts 16.6 mph

Today
High -- | Low -- °F
--% Chance of Precip.
Yesterday
High -- | Low -- °F
Precip. -- in
Pressure 30.01 in
Visibility 10.0 miles
Clouds Few 11000 ft
Windchill 44 °F
Dew Point 41 °F
Humidity 75%
Rainfall 0.00 in
Snow Depth Not available.
7:06 AM 7:40 PM
Waxing Crescent, 9% visible
METAR KEKN 301551Z AUTO 14013G22KT 10SM FEW110 17/07 A2999 RMK AO2 LTG DSNT NW SLP162 T01720067
Pressure 30.01 in
Visibility 10.0 miles
Clouds Few 11000 ft
Windchill 44 °F
Dew Point 41 °F
Humidity 75%
Rainfall 0.00 in
Snow Depth Not available.
7:06 AM 7:40 PM
Waxing Crescent, 9% visible
METAR KEKN 301551Z AUTO 14013G22KT 10SM FEW110 17/07 A2999 RMK AO2 LTG DSNT NW SLP162 T01720067

Get Severe Weather Alerts

Thanks for signing up!

Be on the lookout for a verification email in your inbox.

You'll start receiving the daily forecast at 8 AM.

×

10-Day Weather Forecast

Almanac

Astronomy

Mar. 30, 2017 Rise Set
Actual Time
Civil Twilight
Nautical Twilight
Astronomical Twilight
Moon
Length of Visible Light
Length of Day
Tomorrow will be .
, % of the Moon is Illuminated

Today's Extremes

State Highs State Lows

Community

WunderPhotos

Upload Photos

1,962,540 photos uploaded!

WunderBlog® & News

Nearby

Air Quality

  Air Quality AQ Index Pollutant
Not available.

Snow Depth

Station Depth Elevation

Earthquake Activity

City Distance Mag. Time & Date
Minimum magnitude displayed is 2.5.

Earthquake Activity

City Distance Mag. Time & Date
Minimum magnitude displayed is 2.5.

Coastal Water Temperatures

Place Temperature

Stations

Nearby Weather Stations

Station Location Temp. Windchill Dew Point Humidity Wind Precip. Elev Updated Type
                   

Watches & Warnings

There are currently no watches in effect.